Weather at Dune Aeroclub Città Bianca "Francesco Santoro" [CLOSED]

Public forecast

Using degrees Celsius for public forecast. Weather courtesy of forecast.io.

Closest aviation weather report (METAR) to Dune Aeroclub Città Bianca "Francesco Santoro"

Closest report is Brindisi Airport, 15.7 nm (29.0 km) ESE. Retrieved 2021/10/16 18:20 UTC (3 minutes ago):

LIBR 161820Z 33007KT 9999 FEW030 17/10 Q1016

Closest aviation forecast (TAF) to Dune Aeroclub Città Bianca "Francesco Santoro"

Closest forecast is Brindisi Airport, 15.7 nm (29.0 km) ESE. Retrieved 2021/10/16 18:00 UTC (23 minutes ago):

TAF LIBR 161700Z 1618/1718 33010KT 9999 SCT030